Weather observations for the past three days for
Manhattan, Manhattan Municipal Airport
Metric (Imperial)
Date Time (cdt) Wind (kph) Vis. (km) Weather Sky Cond. Temperature (ºC) Relative Humidity Wind Chill (°C) Heat Index (°C) Pressure Precipitation (cm)
Air Dwpt 6 hour altimeter (cm) sea level (mb) 1 hr 3 hr 6 hr
Max. Min.
07 14:52 SW 33 G 46 16.09 Fair and Breezy CLR 22.8 3.9 29% 75.84 1010.9
07 13:52 SW 22 G 43 16.09 Fair CLR 21.1 4.4 34% 75.92 1011.9
07 12:52 SW 31 G 41 16.09 Fair CLR 20 5 20 3.9 38% 76 1013.0
07 11:52 SW 30 G 43 16.09 Fair CLR 18.3 5 42% 76.07 1014.0
07 10:52 SW 30 G 46 16.09 Fair CLR 16.1 5 48% 76.12 1014.7
07 09:52 SW 30 G 46 16.09 Fair CLR 13.9 5.6 58% 76.17 1015.6
07 08:52 SW 24 G 35 16.09 Fair CLR 11.7 5.6 66% 76.23 1016.4
07 07:52 SW 13 16.09 Fair CLR 8.3 5.6 83% 6 76.25 1016.6
07 06:52 SW 6 16.09 Fair CLR 3.9 3.3 8.3 2.2 96% 76.25 1016.6
07 05:52 Calm 16.09 Fair CLR 2.8 2.2 96% 76.25 1016.8
07 04:52 SW 7 16.09 Fair CLR 5.6 3.9 89% 4 76.28 1017.0
07 03:52 SW 11 16.09 Fair CLR 6.1 3.9 86% 4 76.28 1017.2
07 02:52 SW 6 16.09 Fair CLR 6.1 3.9 86% 76.33 1017.7
07 01:52 SW 9 16.09 Fair CLR 7.2 3.9 80% 6 76.35 1018.1
07 00:52 SW 7 16.09 Fair CLR 7.8 3.9 15.6 7.8 77% 7 76.38 1018.4
06 23:52 SW 6 16.09 Fair CLR 9.4 4.4 71% 76.38 1018.5
06 22:52 W 7 16.09 Fair CLR 10 3.3 63% 9 76.38 1018.6
06 21:52 SW 7 16.09 Fair CLR 10.6 3.3 61% 76.38 1018.5
06 20:52 W 7 16.09 Fair CLR 10 2.8 61% 9 76.33 1017.9
06 18:52 SW 13 16.09 Fair CLR 15.6 -1.1 16.1 13.3 32% 76.33 1017.6
06 17:52 N 6 16.09 Fair CLR 15.6 -2.2 30% 76.33 1017.8
06 16:52 Vrbl 11 16.09 Mostly Cloudy BKN070 15.6 -1.1 32% 76.35 1017.9
06 15:52 Vrbl 6 16.09 Fair CLR 15 -2.2 31% 76.4 1018.7
06 14:52 Vrbl 6 16.09 Mostly Cloudy BKN065 13.9 -1.7 34% 76.48 1019.7
06 13:52 N 7 16.09 Partly Cloudy SCT060 13.9 0 39% 76.48 1019.7
06 12:52 N 9 16.09 A Few Clouds FEW055 13.3 0 13.3 6.7 40% 76.5 1020.0
06 11:52 Calm 16.09 Fair CLR 12.2 0.6 45% 76.53 1020.6
06 10:52 Vrbl 7 16.09 Overcast OVC085 10.6 3.3 61% 76.53 1020.6
06 09:52 W 9 16.09 Mostly Cloudy BKN095 10.6 3.9 64% 76.53 1020.6
06 08:52 W 9 16.09 Overcast OVC100 9.4 3.3 66% 8 76.5 1020.1
06 07:52 W 7 16.09 Mostly Cloudy BKN110 7.8 4.4 79% 7 76.45 1019.3
06 06:52 W 6 16.09 Fair CLR 6.7 3.3 9.4 6.1 79% 76.33 1017.9
06 05:52 Calm 16.09 Overcast OVC110 6.7 3.3 79% 76.3 1017.3
06 04:52 NE 13 16.09 Overcast OVC050 8.3 1.7 63% 6 76.35 1018.1
06 03:52 Calm 16.09 Overcast OVC055 8.3 4.4 77% 76.3 1017.4
06 02:52 NW 7 16.09 Overcast OVC100 8.3 4.4 77% 7 76.25 1016.8
06 01:52 W 9 16.09 Overcast OVC095 8.3 4.4 77% 7 76.23 1016.4
06 00:52 Calm 16.09 Overcast OVC090 8.9 3.3 12.2 8.3 68% 76.12 1015.1
05 23:52 NE 11 16.09 Overcast SCT060 BKN085 OVC110 8.3 3.9 74% 7 76.12 1015.2
05 22:52 Calm 16.09 Light Rain BKN055 OVC070 10.6 4.4 66% 76.2 1016.1
05 21:52 Calm 16.09 Overcast OVC060 9.4 6.7 83% 76.12 1015.2
05 20:52 Calm 16.09 Overcast FEW060 OVC085 10 6.1 77% 76 1013.3
05 19:52 Calm 16.09 Overcast OVC080 11.1 4.4 64% 75.97 1013.0
05 18:52 N 7 16.09 Overcast OVC080 12.2 3.3 12.8 10 55% 75.95 1012.5
05 17:52 N 7 16.09 Overcast OVC080 12.8 2.2 49% 75.95 1012.5
05 16:52 N 15 16.09 Overcast OVC080 12.2 3.3 55% 75.95 1012.5
05 15:52 N 9 16.09 Overcast OVC080 12.2 5.6 64% 76 1013.3
05 14:52 Vrbl 6 16.09 Overcast OVC080 11.1 6.1 72% 76.02 1013.4
05 13:52 NE 6 16.09 Overcast OVC080 10 5.6 74% 76.05 1013.7
05 12:52 NE 13 16.09 Overcast OVC075 10 5.6 10 8.3 74% 8 76.05 1013.9
05 11:52 NE 9 16.09 Overcast OVC070 9.4 6.1 80% 8 76.07 1013.9
05 10:52 NE 15 16.09 Overcast FEW043 FEW065 OVC090 8.9 5.6 80% 7 76 1013.1
05 09:52 NE 17 12.87 Light Rain BKN060 OVC080 8.3 6.1 86% 6 76.02 1013.1
05 08:52 NE 15 16.09 Light Rain BKN060 OVC085 8.9 5.6 80% 7 76 1013.0
05 07:52 NE 17 16.09 Overcast OVC080 8.9 5.6 80% 7 75.9 1011.4
05 06:52 NE 7 16.09 Light Rain OVC075 9.4 5 15.6 9.4 74% 9 75.84 1010.8 0.03 0.03
05 05:52 E 17 16.09 Thunderstorm in Vicinity OVC080 11.7 1.1 48% 75.69 1008.5
05 04:52 NE 28 16.09 Overcast BKN095 OVC120 12.2 0 43% 75.67 1008.0
05 03:52 NE 19 G 37 16.09 Mostly Cloudy BKN100 12.2 0.6 45% 75.67 1008.0
05 02:52 NE 30 G 39 16.09 Overcast OVC100 13.3 0 40% 75.67 1008.0
05 01:52 NE 22 16.09 Partly Cloudy SCT110 14.4 1.7 42% 75.59 1006.9
05 00:52 NE 28 16.09 Fair CLR 15.6 1.1 25.6 15.6 38% 75.57 1006.6
04 23:52 NE 30 G 56 16.09 Thunderstorm in Vicinity BKN070 18.3 1.1 32% 75.49 1005.5
04 22:52 NE 26 G 41 16.09 Fair CLR 20 2.2 31% 75.44 1004.7
04 21:52 NE 20 G 41 16.09 Fair CLR 21.7 4.4 32% 75.26 1002.6
04 20:52 Calm 16.09 Fair CLR 19.4 12.2 63% 75.16 1001.2
04 19:52 S 7 16.09 Fair CLR 22.2 12.8 55% 75.11 1000.6
04 18:52 SE 6 16.09 Fair CLR 25.6 12.2 29.4 25.6 43% 26 75.11 1000.9
04 17:52 S 9 16.09 Fair CLR 27.8 9.4 32% 27 75.11 1000.8
04 16:52 SE 7 16.09 Fair CLR 27.8 10 33% 27 75.08 1000.3
04 15:52 Vrbl 6 16.09 Fair CLR 28.9 7.8 27% 28 75.13 1000.9
Date Time (cdt) Wind (kph) Vis. (km) Weather Sky Cond. Air Dwpt Max. Min. Relative Humidity Wind Chill (°C) Heat Index (°C) altimeter (cm) sea level (mb) 1 hr 3 hr 6 hr
6 hour
Temperature (ºC) Pressure Precipitation (cm)